sensor_id;sensor_type;location;lat;lon;timestamp;temperature;humidity
43894;DHT22;29556;50.846;4.442;2022-11-13T00:00:17;10.40;90.30
43894;DHT22;29556;50.846;4.442;2022-11-13T00:02:43;10.40;90.40
43894;DHT22;29556;50.846;4.442;2022-11-13T00:05:10;10.40;90.30
43894;DHT22;29556;50.846;4.442;2022-11-13T00:07:35;10.50;90.30
43894;DHT22;29556;50.846;4.442;2022-11-13T00:10:01;10.50;90.30
43894;DHT22;29556;50.846;4.442;2022-11-13T00:12:28;10.30;90.20
43894;DHT22;29556;50.846;4.442;2022-11-13T00:14:57;10.30;90.20
43894;DHT22;29556;50.846;4.442;2022-11-13T00:17:23;10.30;90.20
43894;DHT22;29556;50.846;4.442;2022-11-13T00:19:48;10.40;90.20
43894;DHT22;29556;50.846;4.442;2022-11-13T00:22:14;10.40;90.20
43894;DHT22;29556;50.846;4.442;2022-11-13T00:24:40;10.20;90.20
43894;DHT22;29556;50.846;4.442;2022-11-13T00:27:05;10.20;90.20
43894;DHT22;29556;50.846;4.442;2022-11-13T00:29:32;10.30;90.20
43894;DHT22;29556;50.846;4.442;2022-11-13T00:31:57;10.30;90.20
43894;DHT22;29556;50.846;4.442;2022-11-13T00:34:23;10.30;90.30
43894;DHT22;29556;50.846;4.442;2022-11-13T00:36:49;10.10;90.20
43894;DHT22;29556;50.846;4.442;2022-11-13T00:39:14;10.30;90.30
43894;DHT22;29556;50.846;4.442;2022-11-13T00:41:40;10.30;90.30
43894;DHT22;29556;50.846;4.442;2022-11-13T00:44:06;10.20;90.20
43894;DHT22;29556;50.846;4.442;2022-11-13T00:46:33;10.10;90.20
43894;DHT22;29556;50.846;4.442;2022-11-13T00:48:59;10.00;90.20
43894;DHT22;29556;50.846;4.442;2022-11-13T00:51:25;10.00;90.20
43894;DHT22;29556;50.846;4.442;2022-11-13T00:53:51;10.10;90.20
43894;DHT22;29556;50.846;4.442;2022-11-13T00:56:16;10.00;90.20
43894;DHT22;29556;50.846;4.442;2022-11-13T00:58:42;10.00;90.20
43894;DHT22;29556;50.846;4.442;2022-11-13T01:01:11;10.00;90.20
43894;DHT22;29556;50.846;4.442;2022-11-13T01:03:38;10.00;90.20
43894;DHT22;29556;50.846;4.442;2022-11-13T01:06:21;10.00;90.20
43894;DHT22;29556;50.846;4.442;2022-11-13T01:08:48;9.90;90.10
43894;DHT22;29556;50.846;4.442;2022-11-13T01:11:20;9.90;90.10
43894;DHT22;29556;50.846;4.442;2022-11-13T01:13:48;9.80;90.10
43894;DHT22;29556;50.846;4.442;2022-11-13T01:16:16;9.80;90.10
43894;DHT22;29556;50.846;4.442;2022-11-13T01:18:43;9.80;90.10
43894;DHT22;29556;50.846;4.442;2022-11-13T01:21:16;9.90;90.20
43894;DHT22;29556;50.846;4.442;2022-11-13T01:23:43;9.80;90.10
43894;DHT22;29556;50.846;4.442;2022-11-13T01:26:12;9.80;90.10
43894;DHT22;29556;50.846;4.442;2022-11-13T01:28:38;9.80;90.20
43894;DHT22;29556;50.846;4.442;2022-11-13T01:31:06;9.80;90.20
43894;DHT22;29556;50.846;4.442;2022-11-13T01:33:32;9.80;90.20
43894;DHT22;29556;50.846;4.442;2022-11-13T01:36:07;9.80;90.20
43894;DHT22;29556;50.846;4.442;2022-11-13T01:38:33;9.80;90.30
43894;DHT22;29556;50.846;4.442;2022-11-13T01:40:59;9.80;90.20
43894;DHT22;29556;50.846;4.442;2022-11-13T01:43:33;9.80;90.20
43894;DHT22;29556;50.846;4.442;2022-11-13T01:48:34;9.80;90.20
43894;DHT22;29556;50.846;4.442;2022-11-13T01:51:03;9.80;90.30
43894;DHT22;29556;50.846;4.442;2022-11-13T01:53:30;9.80;90.30
43894;DHT22;29556;50.846;4.442;2022-11-13T01:55:56;9.80;90.30
43894;DHT22;29556;50.846;4.442;2022-11-13T01:58:21;10.00;90.30
43894;DHT22;29556;50.846;4.442;2022-11-13T02:00:47;9.90;90.30
43894;DHT22;29556;50.846;4.442;2022-11-13T02:03:14;9.80;90.30
43894;DHT22;29556;50.846;4.442;2022-11-13T02:05:39;9.80;90.30
43894;DHT22;29556;50.846;4.442;2022-11-13T02:08:05;9.90;90.30
43894;DHT22;29556;50.846;4.442;2022-11-13T02:10:31;9.90;90.30
43894;DHT22;29556;50.846;4.442;2022-11-13T02:12:57;9.80;90.10
43894;DHT22;29556;50.846;4.442;2022-11-13T02:15:24;9.80;90.20
43894;DHT22;29556;50.846;4.442;2022-11-13T02:17:56;9.80;90.20
43894;DHT22;29556;50.846;4.442;2022-11-13T02:25:34;9.70;90.20
43894;DHT22;29556;50.846;4.442;2022-11-13T02:28:01;9.80;90.20
43894;DHT22;29556;50.846;4.442;2022-11-13T02:30:30;9.70;90.30
43894;DHT22;29556;50.846;4.442;2022-11-13T02:32:57;9.80;90.20
43894;DHT22;29556;50.846;4.442;2022-11-13T02:35:28;9.60;90.10
43894;DHT22;29556;50.846;4.442;2022-11-13T02:37:55;9.60;90.20
43894;DHT22;29556;50.846;4.442;2022-11-13T02:40:22;9.50;89.90
43894;DHT22;29556;50.846;4.442;2022-11-13T02:42:48;9.50;90.00
43894;DHT22;29556;50.846;4.442;2022-11-13T02:45:14;9.50;90.00
43894;DHT22;29556;50.846;4.442;2022-11-13T02:47:42;9.40;90.00
43894;DHT22;29556;50.846;4.442;2022-11-13T02:50:09;9.40;90.00
43894;DHT22;29556;50.846;4.442;2022-11-13T02:52:35;9.40;90.10
43894;DHT22;29556;50.846;4.442;2022-11-13T02:55:01;9.40;90.10
43894;DHT22;29556;50.846;4.442;2022-11-13T02:57:27;9.40;90.10
43894;DHT22;29556;50.846;4.442;2022-11-13T02:59:52;9.50;90.10
43894;DHT22;29556;50.846;4.442;2022-11-13T03:02:18;9.40;90.00
43894;DHT22;29556;50.846;4.442;2022-11-13T03:04:43;9.40;90.00
43894;DHT22;29556;50.846;4.442;2022-11-13T03:07:11;9.40;90.00
43894;DHT22;29556;50.846;4.442;2022-11-13T03:09:38;9.30;90.00
43894;DHT22;29556;50.846;4.442;2022-11-13T03:12:04;9.40;90.00
43894;DHT22;29556;50.846;4.442;2022-11-13T03:14:30;9.30;90.00
43894;DHT22;29556;50.846;4.442;2022-11-13T03:16:56;9.30;90.00
43894;DHT22;29556;50.846;4.442;2022-11-13T03:19:21;9.30;90.00
43894;DHT22;29556;50.846;4.442;2022-11-13T03:21:47;9.30;90.00
43894;DHT22;29556;50.846;4.442;2022-11-13T03:24:13;9.40;90.10
43894;DHT22;29556;50.846;4.442;2022-11-13T03:26:38;9.40;90.10
43894;DHT22;29556;50.846;4.442;2022-11-13T03:29:04;9.30;90.10
43894;DHT22;29556;50.846;4.442;2022-11-13T03:31:29;9.40;90.10
43894;DHT22;29556;50.846;4.442;2022-11-13T03:33:55;9.30;90.10
43894;DHT22;29556;50.846;4.442;2022-11-13T03:36:22;9.30;90.10
43894;DHT22;29556;50.846;4.442;2022-11-13T03:38:47;9.20;89.90
43894;DHT22;29556;50.846;4.442;2022-11-13T03:41:13;9.30;90.00
43894;DHT22;29556;50.846;4.442;2022-11-13T03:43:40;9.20;90.10
43894;DHT22;29556;50.846;4.442;2022-11-13T03:46:05;9.40;90.20
43894;DHT22;29556;50.846;4.442;2022-11-13T03:48:31;9.30;90.20
43894;DHT22;29556;50.846;4.442;2022-11-13T03:50:58;9.40;90.20
43894;DHT22;29556;50.846;4.442;2022-11-13T03:53:24;9.30;90.20
43894;DHT22;29556;50.846;4.442;2022-11-13T03:55:50;9.30;90.10
43894;DHT22;29556;50.846;4.442;2022-11-13T03:58:15;9.30;90.10
43894;DHT22;29556;50.846;4.442;2022-11-13T04:00:42;9.40;90.10
43894;DHT22;29556;50.846;4.442;2022-11-13T04:03:08;9.30;90.10
43894;DHT22;29556;50.846;4.442;2022-11-13T04:05:34;9.50;90.30
43894;DHT22;29556;50.846;4.442;2022-11-13T04:07:59;9.40;90.30
43894;DHT22;29556;50.846;4.442;2022-11-13T04:10:25;9.40;90.30
43894;DHT22;29556;50.846;4.442;2022-11-13T04:12:51;9.40;90.20
43894;DHT22;29556;50.846;4.442;2022-11-13T04:15:17;9.60;90.40
43894;DHT22;29556;50.846;4.442;2022-11-13T04:17:43;9.40;90.30
43894;DHT22;29556;50.846;4.442;2022-11-13T04:20:09;9.60;90.40
43894;DHT22;29556;50.846;4.442;2022-11-13T04:22:35;9.50;90.40
43894;DHT22;29556;50.846;4.442;2022-11-13T04:25:00;9.70;90.40
43894;DHT22;29556;50.846;4.442;2022-11-13T04:27:26;9.60;90.40
43894;DHT22;29556;50.846;4.442;2022-11-13T04:29:51;9.50;90.30
43894;DHT22;29556;50.846;4.442;2022-11-13T04:32:17;9.50;90.40
43894;DHT22;29556;50.846;4.442;2022-11-13T04:34:43;9.50;90.40
43894;DHT22;29556;50.846;4.442;2022-11-13T04:37:08;9.50;90.40
43894;DHT22;29556;50.846;4.442;2022-11-13T04:39:34;9.50;90.40
43894;DHT22;29556;50.846;4.442;2022-11-13T04:42:00;9.60;90.40
43894;DHT22;29556;50.846;4.442;2022-11-13T04:44:44;9.60;90.40
43894;DHT22;29556;50.846;4.442;2022-11-13T04:47:11;9.70;90.30
43894;DHT22;29556;50.846;4.442;2022-11-13T04:49:37;9.70;90.40
43894;DHT22;29556;50.846;4.442;2022-11-13T04:52:03;9.50;90.30
43894;DHT22;29556;50.846;4.442;2022-11-13T04:54:28;9.50;90.30
43894;DHT22;29556;50.846;4.442;2022-11-13T04:56:54;9.50;90.20
43894;DHT22;29556;50.846;4.442;2022-11-13T04:59:20;9.50;90.20
43894;DHT22;29556;50.846;4.442;2022-11-13T05:01:46;9.60;90.40
43894;DHT22;29556;50.846;4.442;2022-11-13T05:04:13;9.40;90.20
43894;DHT22;29556;50.846;4.442;2022-11-13T05:06:39;9.40;90.20
43894;DHT22;29556;50.846;4.442;2022-11-13T05:09:05;9.40;90.20
43894;DHT22;29556;50.846;4.442;2022-11-13T05:11:30;9.50;90.00
43894;DHT22;29556;50.846;4.442;2022-11-13T05:13:56;9.30;90.00
43894;DHT22;29556;50.846;4.442;2022-11-13T05:16:22;9.30;90.10
43894;DHT22;29556;50.846;4.442;2022-11-13T05:18:47;9.30;90.20
43894;DHT22;29556;50.846;4.442;2022-11-13T05:21:13;9.20;90.10
43894;DHT22;29556;50.846;4.442;2022-11-13T05:23:39;9.20;90.20
43894;DHT22;29556;50.846;4.442;2022-11-13T05:26:11;9.10;90.00
43894;DHT22;29556;50.846;4.442;2022-11-13T05:28:37;9.30;90.40
43894;DHT22;29556;50.846;4.442;2022-11-13T05:31:10;9.10;90.00
43894;DHT22;29556;50.846;4.442;2022-11-13T05:33:37;9.00;89.90
43894;DHT22;29556;50.846;4.442;2022-11-13T05:36:04;8.90;89.90
43894;DHT22;29556;50.846;4.442;2022-11-13T05:38:31;8.90;90.00
43894;DHT22;29556;50.846;4.442;2022-11-13T05:41:04;8.90;90.00
43894;DHT22;29556;50.846;4.442;2022-11-13T05:43:31;9.00;90.10
43894;DHT22;29556;50.846;4.442;2022-11-13T05:48:30;8.90;90.00
43894;DHT22;29556;50.846;4.442;2022-11-13T05:51:13;8.90;89.80
43894;DHT22;29556;50.846;4.442;2022-11-13T05:53:40;8.80;90.00
43894;DHT22;29556;50.846;4.442;2022-11-13T05:56:09;8.80;90.00
43894;DHT22;29556;50.846;4.442;2022-11-13T05:58:35;8.80;90.00
43894;DHT22;29556;50.846;4.442;2022-11-13T06:03:35;8.80;90.00
43894;DHT22;29556;50.846;4.442;2022-11-13T06:06:01;8.70;90.00
43894;DHT22;29556;50.846;4.442;2022-11-13T06:08:28;8.70;90.00
43894;DHT22;29556;50.846;4.442;2022-11-13T06:11:05;8.70;89.80
43894;DHT22;29556;50.846;4.442;2022-11-13T06:13:31;8.80;90.00
43894;DHT22;29556;50.846;4.442;2022-11-13T06:16:05;8.70;89.90
43894;DHT22;29556;50.846;4.442;2022-11-13T06:18:31;8.60;89.70
43894;DHT22;29556;50.846;4.442;2022-11-13T06:21:05;8.60;89.60
43894;DHT22;29556;50.846;4.442;2022-11-13T06:23:32;8.60;89.90
43894;DHT22;29556;50.846;4.442;2022-11-13T06:26:00;8.70;89.80
43894;DHT22;29556;50.846;4.442;2022-11-13T06:28:26;8.60;89.90
43894;DHT22;29556;50.846;4.442;2022-11-13T06:30:52;8.60;90.00
43894;DHT22;29556;50.846;4.442;2022-11-13T06:33:17;8.70;90.00
43894;DHT22;29556;50.846;4.442;2022-11-13T06:35:43;8.60;89.90
43894;DHT22;29556;50.846;4.442;2022-11-13T06:38:09;8.60;89.90
43894;DHT22;29556;50.846;4.442;2022-11-13T06:40:37;8.60;90.30
43894;DHT22;29556;50.846;4.442;2022-11-13T06:43:03;8.60;89.80
43894;DHT22;29556;50.846;4.442;2022-11-13T06:45:28;8.50;89.80
43894;DHT22;29556;50.846;4.442;2022-11-13T06:47:54;8.50;89.90
43894;DHT22;29556;50.846;4.442;2022-11-13T06:50:20;8.40;89.70
43894;DHT22;29556;50.846;4.442;2022-11-13T06:52:46;8.40;89.70
43894;DHT22;29556;50.846;4.442;2022-11-13T06:55:11;8.40;89.70
43894;DHT22;29556;50.846;4.442;2022-11-13T06:57:37;8.40;89.60
43894;DHT22;29556;50.846;4.442;2022-11-13T07:00:03;8.40;89.60
43894;DHT22;29556;50.846;4.442;2022-11-13T07:02:29;8.40;89.70
43894;DHT22;29556;50.846;4.442;2022-11-13T07:04:54;8.40;89.70
43894;DHT22;29556;50.846;4.442;2022-11-13T07:07:20;8.50;90.20
43894;DHT22;29556;50.846;4.442;2022-11-13T07:09:46;8.40;89.50
43894;DHT22;29556;50.846;4.442;2022-11-13T07:12:11;8.30;89.40
43894;DHT22;29556;50.846;4.442;2022-11-13T07:14:37;8.30;89.30
43894;DHT22;29556;50.846;4.442;2022-11-13T07:17:03;8.40;89.20
43894;DHT22;29556;50.846;4.442;2022-11-13T07:19:29;8.20;89.10
43894;DHT22;29556;50.846;4.442;2022-11-13T07:21:54;8.20;89.20
43894;DHT22;29556;50.846;4.442;2022-11-13T07:24:21;8.30;89.30
43894;DHT22;29556;50.846;4.442;2022-11-13T07:26:46;8.30;89.40
43894;DHT22;29556;50.846;4.442;2022-11-13T07:29:12;8.20;89.30
43894;DHT22;29556;50.846;4.442;2022-11-13T07:31:38;8.20;89.30
43894;DHT22;29556;50.846;4.442;2022-11-13T07:34:05;8.30;89.40
43894;DHT22;29556;50.846;4.442;2022-11-13T07:36:30;8.30;89.70
43894;DHT22;29556;50.846;4.442;2022-11-13T07:38:56;8.40;89.90
43894;DHT22;29556;50.846;4.442;2022-11-13T07:41:21;8.40;89.70
43894;DHT22;29556;50.846;4.442;2022-11-13T07:43:47;8.40;89.90
43894;DHT22;29556;50.846;4.442;2022-11-13T07:46:13;8.40;90.00
43894;DHT22;29556;50.846;4.442;2022-11-13T07:48:39;8.50;89.70
43894;DHT22;29556;50.846;4.442;2022-11-13T07:51:04;8.40;89.50
43894;DHT22;29556;50.846;4.442;2022-11-13T07:53:32;8.40;89.60
43894;DHT22;29556;50.846;4.442;2022-11-13T07:56:06;8.40;89.80
43894;DHT22;29556;50.846;4.442;2022-11-13T07:58:32;8.40;89.80
43894;DHT22;29556;50.846;4.442;2022-11-13T08:01:05;8.40;89.90
43894;DHT22;29556;50.846;4.442;2022-11-13T08:03:31;8.40;89.70
43894;DHT22;29556;50.846;4.442;2022-11-13T08:06:04;8.40;89.70
43894;DHT22;29556;50.846;4.442;2022-11-13T08:08:31;8.50;89.90
43894;DHT22;29556;50.846;4.442;2022-11-13T08:10:57;8.50;89.90
43894;DHT22;29556;50.846;4.442;2022-11-13T08:13:22;8.50;89.80
43894;DHT22;29556;50.846;4.442;2022-11-13T08:15:48;8.50;89.80
43894;DHT22;29556;50.846;4.442;2022-11-13T08:18:14;8.50;89.80
43894;DHT22;29556;50.846;4.442;2022-11-13T08:20:39;8.70;90.10
43894;DHT22;29556;50.846;4.442;2022-11-13T08:23:05;8.60;90.10
43894;DHT22;29556;50.846;4.442;2022-11-13T08:25:32;8.60;90.10
43894;DHT22;29556;50.846;4.442;2022-11-13T08:27:58;8.60;90.00
43894;DHT22;29556;50.846;4.442;2022-11-13T08:30:25;8.60;90.00
43894;DHT22;29556;50.846;4.442;2022-11-13T08:32:51;8.60;90.00
43894;DHT22;29556;50.846;4.442;2022-11-13T08:35:18;8.60;90.00
43894;DHT22;29556;50.846;4.442;2022-11-13T08:37:43;8.70;90.00
43894;DHT22;29556;50.846;4.442;2022-11-13T08:40:09;8.60;90.10
43894;DHT22;29556;50.846;4.442;2022-11-13T08:42:35;8.70;90.10
43894;DHT22;29556;50.846;4.442;2022-11-13T08:45:01;8.80;90.30
43894;DHT22;29556;50.846;4.442;2022-11-13T08:47:27;8.70;90.20
43894;DHT22;29556;50.846;4.442;2022-11-13T08:49:56;8.90;90.20
43894;DHT22;29556;50.846;4.442;2022-11-13T08:52:22;8.80;90.20
43894;DHT22;29556;50.846;4.442;2022-11-13T08:54:48;8.80;90.30
43894;DHT22;29556;50.846;4.442;2022-11-13T08:57:14;8.90;90.40
43894;DHT22;29556;50.846;4.442;2022-11-13T08:59:40;8.90;90.30
43894;DHT22;29556;50.846;4.442;2022-11-13T09:02:05;9.00;90.40
43894;DHT22;29556;50.846;4.442;2022-11-13T09:04:32;9.10;90.40
43894;DHT22;29556;50.846;4.442;2022-11-13T09:06:57;9.10;90.40
43894;DHT22;29556;50.846;4.442;2022-11-13T09:09:23;9.10;90.40
43894;DHT22;29556;50.846;4.442;2022-11-13T09:11:50;9.10;90.40
43894;DHT22;29556;50.846;4.442;2022-11-13T09:14:15;9.20;90.50
43894;DHT22;29556;50.846;4.442;2022-11-13T09:16:41;9.30;90.60
43894;DHT22;29556;50.846;4.442;2022-11-13T09:19:07;9.30;90.60
43894;DHT22;29556;50.846;4.442;2022-11-13T09:21:32;9.40;90.60
43894;DHT22;29556;50.846;4.442;2022-11-13T09:23:58;9.60;90.70
43894;DHT22;29556;50.846;4.442;2022-11-13T09:26:24;9.50;90.60
43894;DHT22;29556;50.846;4.442;2022-11-13T09:28:49;9.60;90.70
43894;DHT22;29556;50.846;4.442;2022-11-13T09:31:16;9.80;90.80
43894;DHT22;29556;50.846;4.442;2022-11-13T09:33:41;9.90;90.80
43894;DHT22;29556;50.846;4.442;2022-11-13T09:36:14;9.80;90.80
43894;DHT22;29556;50.846;4.442;2022-11-13T09:38:40;9.90;90.90
43894;DHT22;29556;50.846;4.442;2022-11-13T09:41:19;10.10;91.00
43894;DHT22;29556;50.846;4.442;2022-11-13T09:43:52;10.10;91.00
43894;DHT22;29556;50.846;4.442;2022-11-13T09:49:12;10.30;91.00
43894;DHT22;29556;50.846;4.442;2022-11-13T09:51:40;10.30;91.00
43894;DHT22;29556;50.846;4.442;2022-11-13T09:54:12;10.50;91.10
43894;DHT22;29556;50.846;4.442;2022-11-13T09:56:47;10.60;91.10
43894;DHT22;29556;50.846;4.442;2022-11-13T10:02:17;10.70;91.10
43894;DHT22;29556;50.846;4.442;2022-11-13T10:13:15;11.10;91.30
43894;DHT22;29556;50.846;4.442;2022-11-13T10:15:43;11.10;91.20
43894;DHT22;29556;50.846;4.442;2022-11-13T10:18:20;11.20;91.30
43894;DHT22;29556;50.846;4.442;2022-11-13T10:20:54;11.20;91.30
43894;DHT22;29556;50.846;4.442;2022-11-13T10:23:30;11.40;91.40
43894;DHT22;29556;50.846;4.442;2022-11-13T10:26:14;11.50;91.50
43894;DHT22;29556;50.846;4.442;2022-11-13T10:28:40;11.50;91.40
43894;DHT22;29556;50.846;4.442;2022-11-13T10:31:11;11.60;91.60
43894;DHT22;29556;50.846;4.442;2022-11-13T10:33:37;11.70;91.50
43894;DHT22;29556;50.846;4.442;2022-11-13T10:36:31;11.80;91.50
43894;DHT22;29556;50.846;4.442;2022-11-13T10:39:08;11.90;91.40
43894;DHT22;29556;50.846;4.442;2022-11-13T10:41:51;11.90;91.40
43894;DHT22;29556;50.846;4.442;2022-11-13T10:44:24;12.00;91.30
43894;DHT22;29556;50.846;4.442;2022-11-13T10:46:50;12.00;91.30
43894;DHT22;29556;50.846;4.442;2022-11-13T10:49:25;12.10;91.40
43894;DHT22;29556;50.846;4.442;2022-11-13T10:51:55;12.30;91.40
43894;DHT22;29556;50.846;4.442;2022-11-13T10:54:28;12.30;91.40
43894;DHT22;29556;50.846;4.442;2022-11-13T10:57:01;12.30;91.40
43894;DHT22;29556;50.846;4.442;2022-11-13T10:59:38;12.30;91.40
43894;DHT22;29556;50.846;4.442;2022-11-13T11:02:18;12.40;91.30
43894;DHT22;29556;50.846;4.442;2022-11-13T11:04:44;12.40;91.40
43894;DHT22;29556;50.846;4.442;2022-11-13T11:07:21;12.40;91.40
43894;DHT22;29556;50.846;4.442;2022-11-13T11:09:47;12.50;91.40
43894;DHT22;29556;50.846;4.442;2022-11-13T11:12:19;12.50;91.20
43894;DHT22;29556;50.846;4.442;2022-11-13T11:17:48;12.70;91.40
43894;DHT22;29556;50.846;4.442;2022-11-13T11:22:50;12.70;91.30
43894;DHT22;29556;50.846;4.442;2022-11-13T11:27:53;12.80;91.40
43894;DHT22;29556;50.846;4.442;2022-11-13T11:30:30;12.90;91.30
43894;DHT22;29556;50.846;4.442;2022-11-13T11:33:30;12.90;91.40
43894;DHT22;29556;50.846;4.442;2022-11-13T11:38:43;13.00;91.40
43894;DHT22;29556;50.846;4.442;2022-11-13T11:41:14;13.10;91.30
43894;DHT22;29556;50.846;4.442;2022-11-13T11:43:50;13.20;91.30
43894;DHT22;29556;50.846;4.442;2022-11-13T11:46:21;13.20;91.30
43894;DHT22;29556;50.846;4.442;2022-11-13T11:48:49;13.20;91.30
43894;DHT22;29556;50.846;4.442;2022-11-13T11:51:33;13.40;91.30
43894;DHT22;29556;50.846;4.442;2022-11-13T11:56:52;13.40;91.10
43894;DHT22;29556;50.846;4.442;2022-11-13T12:05:18;13.50;90.90
43894;DHT22;29556;50.846;4.442;2022-11-13T12:08:44;13.50;90.80
43894;DHT22;29556;50.846;4.442;2022-11-13T12:10:52;13.50;90.50
43894;DHT22;29556;50.846;4.442;2022-11-13T12:13:31;13.60;90.80
43894;DHT22;29556;50.846;4.442;2022-11-13T12:16:11;13.60;90.70
43894;DHT22;29556;50.846;4.442;2022-11-13T12:18:58;13.60;90.80
43894;DHT22;29556;50.846;4.442;2022-11-13T12:30:06;13.70;90.50
43894;DHT22;29556;50.846;4.442;2022-11-13T12:33:02;13.90;90.70
43894;DHT22;29556;50.846;4.442;2022-11-13T12:35:29;13.70;90.50
43894;DHT22;29556;50.846;4.442;2022-11-13T12:38:34;13.80;90.70
43894;DHT22;29556;50.846;4.442;2022-11-13T12:46:42;13.80;90.60
43894;DHT22;29556;50.846;4.442;2022-11-13T12:49:25;13.80;90.40
43894;DHT22;29556;50.846;4.442;2022-11-13T12:54:40;13.80;90.20
43894;DHT22;29556;50.846;4.442;2022-11-13T12:57:15;13.80;90.20
43894;DHT22;29556;50.846;4.442;2022-11-13T13:05:05;13.90;90.20
43894;DHT22;29556;50.846;4.442;2022-11-13T13:10:34;14.00;90.60
43894;DHT22;29556;50.846;4.442;2022-11-13T13:15:56;13.90;89.80
43894;DHT22;29556;50.846;4.442;2022-11-13T13:18:27;13.90;89.70
43894;DHT22;29556;50.846;4.442;2022-11-13T13:23:36;14.00;90.20
43894;DHT22;29556;50.846;4.442;2022-11-13T13:26:22;14.10;89.90
43894;DHT22;29556;50.846;4.442;2022-11-13T13:28:50;14.10;90.00
43894;DHT22;29556;50.846;4.442;2022-11-13T13:37:42;14.10;90.20
43894;DHT22;29556;50.846;4.442;2022-11-13T13:46:18;14.10;90.40
43894;DHT22;29556;50.846;4.442;2022-11-13T13:48:48;14.20;90.20
43894;DHT22;29556;50.846;4.442;2022-11-13T13:51:38;14.10;89.50
43894;DHT22;29556;50.846;4.442;2022-11-13T13:54:05;14.30;90.00
43894;DHT22;29556;50.846;4.442;2022-11-13T13:56:32;14.10;89.80
43894;DHT22;29556;50.846;4.442;2022-11-13T13:58:58;14.10;90.10
43894;DHT22;29556;50.846;4.442;2022-11-13T14:01:30;14.20;90.00
43894;DHT22;29556;50.846;4.442;2022-11-13T14:04:13;14.20;89.90
43894;DHT22;29556;50.846;4.442;2022-11-13T14:06:53;14.20;90.00
43894;DHT22;29556;50.846;4.442;2022-11-13T14:09:21;14.20;90.10
43894;DHT22;29556;50.846;4.442;2022-11-13T14:12:05;14.30;90.00
43894;DHT22;29556;50.846;4.442;2022-11-13T14:14:31;14.40;90.20
43894;DHT22;29556;50.846;4.442;2022-11-13T14:16:59;14.30;90.20
43894;DHT22;29556;50.846;4.442;2022-11-13T14:19:26;14.20;89.70
43894;DHT22;29556;50.846;4.442;2022-11-13T14:21:54;14.30;89.90
43894;DHT22;29556;50.846;4.442;2022-11-13T14:24:38;14.30;89.90
43894;DHT22;29556;50.846;4.442;2022-11-13T14:27:10;14.20;89.80
43894;DHT22;29556;50.846;4.442;2022-11-13T14:29:43;14.20;89.70
43894;DHT22;29556;50.846;4.442;2022-11-13T14:32:20;14.20;89.80
43894;DHT22;29556;50.846;4.442;2022-11-13T14:34:49;14.20;89.80
43894;DHT22;29556;50.846;4.442;2022-11-13T14:37:37;14.20;89.90
43894;DHT22;29556;50.846;4.442;2022-11-13T14:40:21;14.20;89.90
43894;DHT22;29556;50.846;4.442;2022-11-13T14:42:57;14.20;89.70
43894;DHT22;29556;50.846;4.442;2022-11-13T14:45:29;14.10;89.30
43894;DHT22;29556;50.846;4.442;2022-11-13T14:47:59;14.10;89.20
43894;DHT22;29556;50.846;4.442;2022-11-13T14:50:28;14.10;89.40
43894;DHT22;29556;50.846;4.442;2022-11-13T14:53:06;14.00;89.10
43894;DHT22;29556;50.846;4.442;2022-11-13T14:55:50;14.00;89.10
43894;DHT22;29556;50.846;4.442;2022-11-13T14:58:28;14.00;89.60
43894;DHT22;29556;50.846;4.442;2022-11-13T15:00:54;14.00;89.50
43894;DHT22;29556;50.846;4.442;2022-11-13T15:03:22;13.90;89.50
43894;DHT22;29556;50.846;4.442;2022-11-13T15:05:49;13.90;89.50
43894;DHT22;29556;50.846;4.442;2022-11-13T15:08:14;13.90;89.90
43894;DHT22;29556;50.846;4.442;2022-11-13T15:10:40;13.90;89.80
43894;DHT22;29556;50.846;4.442;2022-11-13T15:13:14;13.80;89.80
43894;DHT22;29556;50.846;4.442;2022-11-13T15:15:39;13.80;89.80
43894;DHT22;29556;50.846;4.442;2022-11-13T15:18:06;13.70;89.60
43894;DHT22;29556;50.846;4.442;2022-11-13T15:20:33;13.60;89.70
43894;DHT22;29556;50.846;4.442;2022-11-13T15:23:00;13.70;90.20
43894;DHT22;29556;50.846;4.442;2022-11-13T15:25:26;13.50;89.80
43894;DHT22;29556;50.846;4.442;2022-11-13T15:27:51;13.50;89.80
43894;DHT22;29556;50.846;4.442;2022-11-13T15:30:18;13.40;89.70
43894;DHT22;29556;50.846;4.442;2022-11-13T15:32:44;13.40;89.80
43894;DHT22;29556;50.846;4.442;2022-11-13T15:35:15;13.30;89.90
43894;DHT22;29556;50.846;4.442;2022-11-13T15:37:41;13.30;89.90
43894;DHT22;29556;50.846;4.442;2022-11-13T15:40:07;13.20;89.70
43894;DHT22;29556;50.846;4.442;2022-11-13T15:42:34;13.10;89.80
43894;DHT22;29556;50.846;4.442;2022-11-13T15:45:00;13.10;90.00
43894;DHT22;29556;50.846;4.442;2022-11-13T15:47:33;13.20;90.00
43894;DHT22;29556;50.846;4.442;2022-11-13T15:49:59;12.90;89.90
43894;DHT22;29556;50.846;4.442;2022-11-13T15:52:26;12.90;90.00
43894;DHT22;29556;50.846;4.442;2022-11-13T15:54:54;12.80;90.30
43894;DHT22;29556;50.846;4.442;2022-11-13T15:57:22;12.70;89.90
43894;DHT22;29556;50.846;4.442;2022-11-13T15:59:48;12.70;90.00
43894;DHT22;29556;50.846;4.442;2022-11-13T16:02:14;12.60;90.00
43894;DHT22;29556;50.846;4.442;2022-11-13T16:04:40;12.60;90.00
43894;DHT22;29556;50.846;4.442;2022-11-13T16:07:21;12.50;90.00
43894;DHT22;29556;50.846;4.442;2022-11-13T16:09:49;12.50;90.00
43894;DHT22;29556;50.846;4.442;2022-11-13T16:12:18;12.40;90.00
43894;DHT22;29556;50.846;4.442;2022-11-13T16:14:45;12.30;90.00
43894;DHT22;29556;50.846;4.442;2022-11-13T16:17:15;12.20;90.00
43894;DHT22;29556;50.846;4.442;2022-11-13T16:19:50;12.30;90.10
43894;DHT22;29556;50.846;4.442;2022-11-13T16:22:19;12.10;90.00
43894;DHT22;29556;50.846;4.442;2022-11-13T16:24:45;12.00;90.00
43894;DHT22;29556;50.846;4.442;2022-11-13T16:27:25;12.10;90.00
43894;DHT22;29556;50.846;4.442;2022-11-13T16:29:51;11.90;90.10
43894;DHT22;29556;50.846;4.442;2022-11-13T16:32:17;12.10;90.10
43894;DHT22;29556;50.846;4.442;2022-11-13T16:34:44;11.90;90.10
43894;DHT22;29556;50.846;4.442;2022-11-13T16:37:18;11.80;90.10
43894;DHT22;29556;50.846;4.442;2022-11-13T16:39:44;11.90;90.20
43894;DHT22;29556;50.846;4.442;2022-11-13T16:42:11;11.70;90.10
43894;DHT22;29556;50.846;4.442;2022-11-13T16:44:37;11.70;90.20
43894;DHT22;29556;50.846;4.442;2022-11-13T16:47:04;11.80;90.20
43894;DHT22;29556;50.846;4.442;2022-11-13T16:49:30;11.70;90.20
43894;DHT22;29556;50.846;4.442;2022-11-13T16:51:56;11.50;90.10
43894;DHT22;29556;50.846;4.442;2022-11-13T16:54:22;11.50;90.20
43894;DHT22;29556;50.846;4.442;2022-11-13T16:56:48;11.50;90.20
43894;DHT22;29556;50.846;4.442;2022-11-13T16:59:13;11.40;90.20
43894;DHT22;29556;50.846;4.442;2022-11-13T17:01:39;11.40;90.20
43894;DHT22;29556;50.846;4.442;2022-11-13T17:04:05;11.40;90.20
43894;DHT22;29556;50.846;4.442;2022-11-13T17:06:33;11.40;90.20
43894;DHT22;29556;50.846;4.442;2022-11-13T17:09:00;11.30;90.20
43894;DHT22;29556;50.846;4.442;2022-11-13T17:11:28;11.30;90.20
43894;DHT22;29556;50.846;4.442;2022-11-13T17:13:59;11.20;90.20
43894;DHT22;29556;50.846;4.442;2022-11-13T17:16:26;11.20;90.50
43894;DHT22;29556;50.846;4.442;2022-11-13T17:18:52;11.10;90.20